Time;durP1;ratioP1;P1;durP2;ratioP2;P2;SDS_P1;SDS_P2;PMS_P1;PMS_P2;Temp;Humidity;BMP_temperature;BMP_pressure;BME280_temperature;BME280_humidity;BME280_pressure;Samples;Min_cycle;Max_cycle;Signal;HPM_P1;HPM_P2
2023/09/03 00:00:39;;;;;;;1.30;0.60;;;20.20;99.90;;;;;;5091689;28;20050;-84
2023/09/03 00:03:05;;;;;;;6.95;1.05;;;20.20;99.90;;;;;;5090055;28;20081;-84
2023/09/03 00:05:31;;;;;;;1.60;0.57;;;20.20;99.90;;;;;;5090594;28;20635;-85
2023/09/03 00:07:57;;;;;;;3.90;0.95;;;20.10;99.90;;;;;;5091352;28;20115;-87
2023/09/03 00:10:23;;;;;;;2.22;0.70;;;20.10;99.90;;;;;;5091274;28;20085;-86
2023/09/03 00:12:49;;;;;;;1.23;0.65;;;20.10;99.90;;;;;;5092475;28;20020;-86
2023/09/03 00:15:15;;;;;;;0.95;0.52;;;20.00;99.90;;;;;;5094049;28;20044;-86
2023/09/03 00:17:43;;;;;;;3.65;0.90;;;20.00;99.90;;;;;;5095260;28;20039;-86
2023/09/03 00:20:10;;;;;;;2.60;0.80;;;19.90;99.90;;;;;;5096468;28;20024;-85
2023/09/03 00:22:36;;;;;;;1.77;0.80;;;19.80;99.90;;;;;;5096419;28;20023;-87
2023/09/03 00:25:02;;;;;;;1.17;0.60;;;19.80;99.90;;;;;;5096536;28;20119;-87
2023/09/03 00:27:28;;;;;;;0.95;0.60;;;19.70;99.90;;;;;;5095602;28;20540;-86
2023/09/03 00:29:53;;;;;;;1.77;0.73;;;19.70;99.90;;;;;;5096405;28;20068;-88
2023/09/03 00:32:19;;;;;;;4.82;0.88;;;19.50;99.90;;;;;;5095270;28;20031;-88
2023/09/03 00:34:45;;;;;;;1.20;0.50;;;19.50;99.90;;;;;;5095372;28;20032;-87
2023/09/03 00:37:12;;;;;;;2.60;0.60;;;19.40;99.90;;;;;;5095310;28;20027;-87
2023/09/03 00:39:37;;;;;;;2.53;0.60;;;19.30;99.90;;;;;;5095500;28;20032;-87
2023/09/03 00:42:03;;;;;;;2.00;0.88;;;19.30;99.90;;;;;;5095223;28;20043;-87
2023/09/03 00:44:29;;;;;;;1.60;0.70;;;19.20;99.90;;;;;;5096247;28;20073;-87
2023/09/03 00:46:55;;;;;;;1.77;0.68;;;19.10;99.90;;;;;;5094620;28;20089;-86
2023/09/03 00:49:22;;;;;;;3.35;0.80;;;19.10;99.90;;;;;;5096153;28;20395;-86
2023/09/03 00:51:52;;;;;;;3.03;0.95;;;18.90;99.90;;;;;;5095739;28;20146;-87
2023/09/03 00:54:19;;;;;;;5.45;0.82;;;18.80;99.90;;;;;;5094285;28;20519;-86
2023/09/03 00:56:45;;;;;;;1.23;0.70;;;18.80;99.90;;;;;;5093957;28;20026;-87
2023/09/03 00:59:11;;;;;;;2.33;0.80;;;18.70;99.90;;;;;;5094419;28;20035;-88
2023/09/03 01:01:37;;;;;;;2.85;1.15;;;18.60;99.90;;;;;;5094748;28;20428;-87
2023/09/03 01:04:03;;;;;;;2.95;1.17;;;18.60;99.90;;;;;;5095454;28;20123;-86
2023/09/03 01:06:28;;;;;;;2.63;0.80;;;18.50;99.90;;;;;;5093992;28;20024;-86
2023/09/03 01:08:54;;;;;;;2.28;1.00;;;18.60;99.90;;;;;;5095830;28;20481;-88
2023/09/03 01:11:55;;;;;;;2.55;0.90;;;18.60;99.90;;;;;;5094485;28;20027;-88
2023/09/03 01:14:52;;;;;;;4.65;1.20;;;18.70;99.90;;;;;;5086808;28;20047;-88
2023/09/03 01:17:45;;;;;;;1.42;0.70;;;18.70;99.90;;;;;;5095983;28;20496;-88
2023/09/03 01:20:31;;;;;;;2.13;0.73;;;18.80;99.90;;;;;;5091522;28;20059;-87
2023/09/03 01:23:19;;;;;;;4.45;0.85;;;18.70;99.90;;;;;;5093032;28;20043;-86
2023/09/03 01:26:03;;;;;;;1.33;0.55;;;18.70;99.90;;;;;;5093430;28;20031;-87
2023/09/03 01:28:41;;;;;;;4.65;1.20;;;18.70;99.90;;;;;;5095245;28;20028;-86
2023/09/03 01:31:13;;;;;;;1.70;0.63;;;18.70;99.90;;;;;;5094814;28;20043;-86
2023/09/03 01:33:43;;;;;;;3.70;0.88;;;18.60;99.90;;;;;;5094110;28;20024;-88
2023/09/03 01:36:09;;;;;;;1.75;0.80;;;18.60;99.90;;;;;;5095344;28;20396;-87
2023/09/03 01:38:39;;;;;;;2.17;0.75;;;18.60;99.90;;;;;;5094140;28;20024;-88
2023/09/03 01:41:06;;;;;;;3.05;0.90;;;18.60;99.90;;;;;;5094542;28;20565;-85
2023/09/03 01:43:32;;;;;;;2.03;0.90;;;18.60;99.90;;;;;;5094488;28;20032;-86
2023/09/03 01:46:06;;;;;;;1.30;0.65;;;18.60;99.90;;;;;;5094044;28;20024;-84
2023/09/03 01:49:03;;;;;;;1.70;0.50;;;18.60;99.90;;;;;;5092452;28;20607;-85
2023/09/03 01:51:32;;;;;;;2.03;0.55;;;18.60;99.90;;;;;;5094307;28;20020;-88
2023/09/03 01:54:07;;;;;;;2.42;0.80;;;18.60;99.90;;;;;;5093916;28;20013;-89
2023/09/03 01:56:38;;;;;;;1.30;0.70;;;18.60;99.90;;;;;;5095083;28;20113;-87
2023/09/03 01:59:11;;;;;;;1.42;0.60;;;18.60;99.90;;;;;;5095067;28;20024;-87
2023/09/03 02:01:38;;;;;;;1.45;0.60;;;18.60;99.90;;;;;;5093613;28;20032;-87
2023/09/03 02:04:04;;;;;;;4.03;1.05;;;18.60;99.90;;;;;;5094314;28;20118;-88
2023/09/03 02:06:30;;;;;;;1.73;0.70;;;18.60;99.90;;;;;;5094695;28;20024;-88
2023/09/03 02:08:55;;;;;;;2.80;0.95;;;18.50;99.90;;;;;;5093754;28;20027;-86
2023/09/03 02:11:21;;;;;;;2.28;0.65;;;18.50;99.90;;;;;;5094532;28;20020;-87
2023/09/03 02:13:47;;;;;;;1.70;0.50;;;18.50;99.90;;;;;;5093445;28;20039;-86
2023/09/03 02:16:12;;;;;;;1.67;0.60;;;18.50;99.90;;;;;;5091506;28;20067;-86
2023/09/03 02:18:38;;;;;;;3.50;0.75;;;18.60;99.90;;;;;;5093368;28;20062;-85
2023/09/03 02:21:03;;;;;;;2.08;0.77;;;18.60;99.90;;;;;;5094548;28;20027;-86
2023/09/03 02:23:29;;;;;;;1.83;1.00;;;18.50;99.90;;;;;;5093928;28;20036;-86
2023/09/03 02:26:02;;;;;;;1.55;0.60;;;18.50;99.90;;;;;;5095139;28;20067;-88
2023/09/03 02:28:28;;;;;;;2.35;0.80;;;18.50;99.90;;;;;;5094585;28;20687;-88
2023/09/03 02:30:54;;;;;;;3.05;0.82;;;18.40;99.90;;;;;;5093872;28;20028;-89
2023/09/03 02:33:20;;;;;;;1.33;0.60;;;18.40;99.90;;;;;;5093110;28;20111;-90
2023/09/03 02:35:45;;;;;;;3.03;0.88;;;18.30;99.90;;;;;;5094071;28;20028;-89
2023/09/03 02:38:11;;;;;;;0.70;0.40;;;18.30;99.90;;;;;;5094229;28;20062;-88
2023/09/03 02:40:37;;;;;;;1.52;0.60;;;18.30;99.90;;;;;;5094011;28;20043;-88
2023/09/03 02:43:04;;;;;;;2.35;0.70;;;18.30;99.90;;;;;;5094150;28;20445;-86
2023/09/03 02:45:30;;;;;;;1.23;0.60;;;18.20;99.90;;;;;;5093681;28;20392;-86
2023/09/03 02:47:55;;;;;;;2.25;1.00;;;18.30;99.90;;;;;;5092802;28;20020;-89
2023/09/03 02:50:21;;;;;;;1.48;0.52;;;18.30;99.90;;;;;;5094076;28;20035;-88
2023/09/03 02:52:46;;;;;;;4.30;0.65;;;18.30;99.90;;;;;;5092900;28;20028;-88
2023/09/03 02:55:13;;;;;;;1.75;0.60;;;18.30;99.90;;;;;;5092969;28;20028;-90
2023/09/03 02:57:39;;;;;;;2.10;0.60;;;18.30;99.90;;;;;;5094056;28;20495;-89
2023/09/03 03:00:06;;;;;;;1.58;0.70;;;18.30;99.90;;;;;;5092884;28;20032;-88
2023/09/03 03:02:32;;;;;;;2.22;0.60;;;18.30;99.90;;;;;;5093763;28;20887;-89
2023/09/03 03:04:58;;;;;;;2.63;0.77;;;18.30;99.90;;;;;;5093753;28;20040;-89
2023/09/03 03:07:25;;;;;;;1.58;0.60;;;18.30;99.90;;;;;;5093792;28;20024;-87
2023/09/03 03:09:51;;;;;;;2.50;0.80;;;18.30;99.90;;;;;;5093146;28;20056;-88
2023/09/03 03:12:18;;;;;;;3.33;0.60;;;18.40;99.90;;;;;;5094749;28;20039;-87
2023/09/03 03:14:44;;;;;;;2.00;0.50;;;18.40;99.90;;;;;;5092935;28;20027;-88
2023/09/03 03:17:10;;;;;;;1.02;0.50;;;18.40;99.90;;;;;;5093073;28;20393;-89
2023/09/03 03:19:35;;;;;;;1.35;0.50;;;18.40;99.90;;;;;;5093448;28;20052;-89
2023/09/03 03:22:01;;;;;;;3.28;0.65;;;18.50;99.90;;;;;;5093143;28;20024;-87
2023/09/03 03:24:27;;;;;;;1.50;0.60;;;18.50;99.90;;;;;;5091844;28;20040;-87
2023/09/03 03:26:52;;;;;;;2.50;0.45;;;18.50;99.90;;;;;;5091718;28;20142;-86
2023/09/03 03:29:18;;;;;;;3.47;0.60;;;18.50;99.90;;;;;;5092440;28;20032;-85
2023/09/03 03:31:43;;;;;;;6.03;0.85;;;18.50;99.90;;;;;;5090966;28;20031;-85
2023/09/03 03:34:09;;;;;;;1.05;0.50;;;18.40;99.90;;;;;;5090728;28;20024;-86
2023/09/03 03:36:35;;;;;;;1.48;0.60;;;18.40;99.90;;;;;;5092085;28;20028;-87
2023/09/03 03:39:00;;;;;;;2.25;0.52;;;18.40;99.90;;;;;;5093078;28;20030;-87
2023/09/03 03:41:26;;;;;;;1.85;0.70;;;18.30;99.90;;;;;;5091876;28;20553;-87
2023/09/03 03:43:52;;;;;;;1.38;0.47;;;18.30;99.90;;;;;;5091949;28;20035;-88
2023/09/03 03:46:19;;;;;;;1.23;0.52;;;18.30;99.90;;;;;;5091731;28;20111;-88
2023/09/03 03:48:47;;;;;;;1.17;0.60;;;18.30;99.90;;;;;;5092134;28;20020;-86
2023/09/03 03:51:13;;;;;;;2.65;0.63;;;18.30;99.90;;;;;;5091733;28;20441;-86
2023/09/03 03:53:39;;;;;;;1.48;1.00;;;18.30;99.90;;;;;;5092623;28;20055;-86
2023/09/03 03:56:10;;;;;;;2.28;0.88;;;18.30;99.90;;;;;;5089779;28;20024;-88
2023/09/03 03:58:37;;;;;;;1.73;0.55;;;18.30;99.90;;;;;;5091699;28;20032;-88
2023/09/03 04:01:23;;;;;;;5.32;0.75;;;18.20;99.90;;;;;;5092726;28;20063;-87
2023/09/03 04:03:54;;;;;;;10.30;2.22;;;18.20;99.90;;;;;;5090628;28;20032;-88
2023/09/03 04:06:20;;;;;;;4.20;1.58;;;18.30;99.90;;;;;;5090857;28;20024;-87
2023/09/03 04:08:46;;;;;;;5.88;1.02;;;18.40;99.90;;;;;;5091630;28;20116;-90
2023/09/03 04:11:20;;;;;;;4.53;0.77;;;18.60;99.90;;;;;;5091494;28;20028;-89
2023/09/03 04:13:46;;;;;;;7.97;1.55;;;18.80;99.90;;;;;;5090985;28;20036;-90
2023/09/03 04:16:16;;;;;;;14.80;1.95;;;18.70;99.90;;;;;;5077970;28;20147;-90
2023/09/03 04:18:44;;;;;;;4.10;0.60;;;18.40;99.90;;;;;;5069554;28;20058;-89
2023/09/03 04:21:10;;;;;;;3.45;0.50;;;18.10;99.90;;;;;;5071300;28;20032;-90
2023/09/03 04:23:35;;;;;;;2.15;0.70;;;17.80;99.90;;;;;;5070396;28;20409;-88
2023/09/03 04:26:01;;;;;;;10.68;4.20;;;17.70;99.90;;;;;;5070588;28;20028;-87
2023/09/03 04:28:27;;;;;;;2.88;0.55;;;17.60;99.90;;;;;;5069327;28;20029;-89
2023/09/03 04:30:54;;;;;;;4.20;0.77;;;17.40;99.90;;;;;;5071435;28;20033;-90
2023/09/03 04:33:20;;;;;;;3.70;1.00;;;17.20;99.90;;;;;;5072562;28;20028;-90
2023/09/03 04:35:46;;;;;;;5.50;0.60;;;17.20;99.90;;;;;;5072628;28;20024;-92
2023/09/03 04:38:12;;;;;;;3.80;0.60;;;17.10;99.90;;;;;;5071297;28;20032;-91
2023/09/03 04:40:37;;;;;;;7.32;0.82;;;17.10;99.90;;;;;;5072717;28;20020;-90
2023/09/03 04:43:04;;;;;;;7.40;0.60;;;17.00;99.90;;;;;;5071267;28;20032;-90
2023/09/03 04:45:31;;;;;;;2.05;0.50;;;17.00;99.90;;;;;;5071485;28;20462;-90
2023/09/03 04:47:58;;;;;;;1.92;0.60;;;17.10;99.90;;;;;;5071384;28;20036;-92
2023/09/03 04:50:25;;;;;;;5.90;0.60;;;17.20;99.90;;;;;;5071242;28;20021;-92
2023/09/03 04:52:51;;;;;;;2.92;0.60;;;17.10;99.90;;;;;;5072527;28;20059;-89
2023/09/03 04:55:16;;;;;;;5.60;0.65;;;17.20;99.90;;;;;;5071861;28;20052;-87
2023/09/03 04:57:42;;;;;;;5.60;1.05;;;17.10;99.90;;;;;;5072138;28;20033;-88
2023/09/03 05:00:08;;;;;;;2.80;0.57;;;17.10;99.90;;;;;;5072675;28;20024;-87
2023/09/03 05:02:34;;;;;;;6.55;0.88;;;17.00;99.90;;;;;;5074551;28;20028;-86
2023/09/03 05:05:00;;;;;;;6.35;0.70;;;16.90;99.90;;;;;;5074979;28;20036;-89
2023/09/03 05:07:26;;;;;;;2.90;0.70;;;16.80;99.90;;;;;;5075147;28;20020;-88
2023/09/03 05:09:53;;;;;;;1.63;0.45;;;16.80;99.90;;;;;;5074899;28;20074;-88
2023/09/03 05:12:18;;;;;;;4.53;0.50;;;16.80;99.90;;;;;;5074044;28;20040;-88
2023/09/03 05:14:44;;;;;;;1.23;0.40;;;16.90;99.90;;;;;;5074340;28;20392;-88
2023/09/03 05:17:10;;;;;;;4.63;0.63;;;17.10;99.90;;;;;;5073687;28;20090;-88
2023/09/03 05:19:35;;;;;;;3.53;0.40;;;17.20;99.90;;;;;;5073307;28;20028;-88
2023/09/03 05:22:01;;;;;;;1.00;0.40;;;17.20;99.90;;;;;;5073768;28;20173;-89
2023/09/03 05:24:26;;;;;;;1.85;0.40;;;17.20;99.90;;;;;;5072864;28;20044;-87
2023/09/03 05:26:52;;;;;;;3.78;0.80;;;17.30;99.90;;;;;;5073089;28;20029;-87
2023/09/03 05:29:18;;;;;;;2.88;0.50;;;17.30;99.90;;;;;;5074810;28;20021;-87
2023/09/03 05:31:43;;;;;;;1.77;0.50;;;17.40;99.90;;;;;;5073159;28;20028;-85
2023/09/03 05:34:09;;;;;;;1.23;0.40;;;17.40;99.90;;;;;;5073810;28;20017;-86
2023/09/03 05:36:35;;;;;;;0.88;0.20;;;17.40;99.90;;;;;;5073516;28;20050;-87
2023/09/03 05:39:01;;;;;;;3.50;0.45;;;17.40;99.90;;;;;;5074003;28;20393;-87
2023/09/03 05:41:27;;;;;;;0.50;0.22;;;17.50;99.90;;;;;;5074719;28;20093;-87
2023/09/03 05:43:53;;;;;;;1.35;0.35;;;17.60;99.90;;;;;;5072446;28;20455;-87
2023/09/03 05:46:19;;;;;;;0.95;0.32;;;17.70;99.90;;;;;;5073743;28;20124;-86
2023/09/03 05:48:52;;;;;;;7.13;0.20;;;17.60;99.90;;;;;;5072548;28;20111;-86
2023/09/03 05:51:17;;;;;;;1.95;0.50;;;17.60;99.90;;;;;;5077731;28;20032;-88
2023/09/03 05:53:43;;;;;;;2.10;0.88;;;17.60;99.90;;;;;;5107480;28;20572;-88
2023/09/03 05:56:10;;;;;;;2.45;0.90;;;17.60;99.90;;;;;;5114947;28;20049;-88
2023/09/03 05:58:37;;;;;;;5.90;1.00;;;17.50;99.90;;;;;;5114948;28;20111;-87
2023/09/03 06:01:07;;;;;;;4.80;1.00;;;17.50;99.90;;;;;;5113818;28;20077;-88
2023/09/03 06:03:33;;;;;;;4.13;1.10;;;17.50;99.90;;;;;;5113117;28;20507;-88
2023/09/03 06:06:06;;;;;;;1.75;0.60;;;17.50;99.90;;;;;;5114842;27;20472;-87
2023/09/03 06:08:33;;;;;;;2.05;0.60;;;17.50;99.90;;;;;;5113484;28;20036;-89
2023/09/03 06:11:00;;;;;;;2.30;0.80;;;17.40;99.90;;;;;;5114096;28;20031;-90
2023/09/03 06:13:30;;;;;;;2.03;0.40;;;17.40;99.90;;;;;;5112378;28;20095;-89
2023/09/03 06:15:56;;;;;;;1.35;0.43;;;17.40;99.90;;;;;;5114311;27;20096;-88
2023/09/03 06:18:23;;;;;;;1.65;0.40;;;17.40;99.90;;;;;;5114450;28;20027;-89
2023/09/03 06:20:49;;;;;;;2.85;0.50;;;17.40;99.90;;;;;;5113709;28;20023;-90
2023/09/03 06:23:18;;;;;;;3.88;0.80;;;17.50;99.90;;;;;;5114626;28;20089;-88
2023/09/03 06:25:48;;;;;;;3.03;0.65;;;17.50;99.90;;;;;;5113468;28;20020;-89
2023/09/03 06:28:15;;;;;;;1.48;0.77;;;17.40;99.90;;;;;;5114548;28;20035;-88
2023/09/03 06:30:42;;;;;;;4.07;0.77;;;17.50;99.90;;;;;;5114469;28;20050;-89
2023/09/03 06:33:09;;;;;;;8.07;0.90;;;17.50;99.90;;;;;;5113132;28;20016;-88
2023/09/03 06:35:35;;;;;;;5.75;0.73;;;17.50;99.90;;;;;;5110299;28;20495;-90
2023/09/03 06:38:00;;;;;;;2.05;0.82;;;17.40;99.90;;;;;;5114162;28;20031;-89
2023/09/03 06:40:27;;;;;;;4.82;0.80;;;17.40;99.90;;;;;;5113417;28;20032;-88
2023/09/03 06:42:52;;;;;;;2.90;0.77;;;17.40;99.90;;;;;;5113637;28;20024;-88
2023/09/03 06:45:19;;;;;;;17.90;6.80;;;17.30;99.90;;;;;;5111448;28;20034;-88
2023/09/03 06:47:45;;;;;;;8.15;4.28;;;17.40;99.90;;;;;;5112321;28;20054;-89
2023/09/03 06:50:14;;;;;;;3.78;1.90;;;17.30;99.90;;;;;;5114246;28;20042;-89
2023/09/03 06:52:39;;;;;;;3.22;1.50;;;17.30;99.90;;;;;;5114170;28;20080;-88
2023/09/03 06:55:06;;;;;;;5.38;1.27;;;17.30;99.90;;;;;;5114211;28;20473;-90
2023/09/03 06:57:32;;;;;;;5.60;1.00;;;17.30;99.90;;;;;;5113277;28;20012;-89
2023/09/03 06:59:58;;;;;;;4.28;0.82;;;17.30;99.90;;;;;;5114255;28;20077;-90
2023/09/03 07:02:25;;;;;;;5.90;0.88;;;17.40;99.90;;;;;;5112913;28;20092;-89
2023/09/03 07:04:51;;;;;;;2.47;0.80;;;17.40;99.90;;;;;;5111343;28;20076;-90
2023/09/03 07:07:17;;;;;;;2.05;0.65;;;17.30;99.90;;;;;;5112680;28;20035;-89
2023/09/03 07:09:42;;;;;;;4.22;0.95;;;17.40;99.90;;;;;;5113631;28;20408;-88
2023/09/03 07:12:08;;;;;;;1.80;0.70;;;17.50;99.90;;;;;;5112813;28;20024;-88
2023/09/03 07:14:35;;;;;;;6.63;1.05;;;17.60;99.90;;;;;;5113538;28;20016;-87
2023/09/03 07:17:02;;;;;;;5.78;0.70;;;17.60;99.90;;;;;;5112707;28;20055;-90
2023/09/03 07:19:28;;;;;;;5.20;0.70;;;17.60;99.90;;;;;;5112647;28;20027;-87
2023/09/03 07:21:54;;;;;;;4.45;1.02;;;17.70;99.90;;;;;;5112641;28;20028;-88
2023/09/03 07:24:20;;;;;;;2.85;0.80;;;17.70;99.90;;;;;;5112685;28;20036;-89
2023/09/03 07:26:46;;;;;;;4.43;0.90;;;17.60;99.90;;;;;;5112184;28;20361;-90
2023/09/03 07:29:13;;;;;;;4.50;0.80;;;17.70;99.90;;;;;;5113421;28;20539;-89
2023/09/03 07:31:41;;;;;;;4.05;1.20;;;17.70;99.90;;;;;;5111603;28;20114;-87
2023/09/03 07:34:13;;;;;;;2.47;0.70;;;17.70;99.90;;;;;;5111611;28;20039;-88
2023/09/03 07:36:40;;;;;;;2.75;0.95;;;17.70;99.90;;;;;;5113383;28;20040;-87
2023/09/03 07:39:08;;;;;;;1.70;0.70;;;17.70;99.90;;;;;;5112225;28;20407;-89
2023/09/03 07:41:36;;;;;;;2.50;0.70;;;17.90;99.90;;;;;;5112024;28;20020;-87
2023/09/03 07:44:01;;;;;;;2.85;0.90;;;18.00;99.90;;;;;;5112945;28;20040;-89
2023/09/03 07:46:27;;;;;;;3.35;0.70;;;18.10;99.90;;;;;;5113226;28;20020;-89
2023/09/03 07:48:53;;;;;;;3.03;0.82;;;18.20;99.90;;;;;;5115157;28;20161;-87
2023/09/03 07:51:20;;;;;;;3.38;0.95;;;18.30;99.90;;;;;;5110393;28;20076;-87
2023/09/03 07:53:49;;;;;;;2.40;0.65;;;18.40;99.90;;;;;;5112247;28;20104;-86
2023/09/03 07:56:18;;;;;;;4.65;1.05;;;18.40;99.90;;;;;;5112052;28;20484;-88
2023/09/03 07:58:44;;;;;;;2.67;0.60;;;18.50;99.90;;;;;;5113071;28;20064;-87
2023/09/03 08:01:11;;;;;;;1.88;0.80;;;18.60;99.90;;;;;;5109281;28;20022;-88
2023/09/03 08:03:41;;;;;;;4.10;0.73;;;18.70;99.90;;;;;;5086366;28;20097;-87
2023/09/03 08:06:08;;;;;;;3.38;0.80;;;18.80;99.90;;;;;;5092877;28;20108;-88
2023/09/03 08:08:34;;;;;;;6.88;0.77;;;18.80;99.90;;;;;;5092541;28;20032;-88
2023/09/03 08:11:00;;;;;;;3.83;0.55;;;18.90;99.90;;;;;;5093290;28;20031;-88
2023/09/03 08:13:26;;;;;;;1.95;0.50;;;18.90;99.90;;;;;;5092811;28;20027;-89
2023/09/03 08:15:51;;;;;;;2.28;0.50;;;19.00;99.90;;;;;;5093060;28;20127;-88
2023/09/03 08:18:18;;;;;;;5.75;1.33;;;19.20;99.90;;;;;;5093468;28;20583;-89
2023/09/03 08:20:44;;;;;;;6.40;0.55;;;19.40;99.90;;;;;;5092008;28;20020;-88
2023/09/03 08:23:11;;;;;;;4.22;0.70;;;19.60;99.90;;;;;;5091333;28;20050;-89
2023/09/03 08:25:37;;;;;;;5.57;0.95;;;19.70;99.90;;;;;;5091580;28;20058;-86
2023/09/03 08:28:03;;;;;;;2.20;0.68;;;19.80;99.90;;;;;;5092869;28;20036;-87
2023/09/03 08:30:29;;;;;;;1.42;0.50;;;19.90;99.90;;;;;;5092325;28;20101;-86
2023/09/03 08:32:55;;;;;;;4.35;0.80;;;20.00;99.90;;;;;;5092621;28;20476;-88
2023/09/03 08:35:20;;;;;;;3.80;0.75;;;20.10;99.90;;;;;;5095646;28;20389;-88
2023/09/03 08:37:46;;;;;;;5.28;0.98;;;20.10;99.90;;;;;;5095606;28;20078;-88
2023/09/03 08:40:12;;;;;;;1.55;0.70;;;20.10;99.90;;;;;;5096466;28;20028;-86
2023/09/03 08:42:40;;;;;;;2.65;0.75;;;20.20;99.90;;;;;;5096532;28;20369;-88
2023/09/03 08:45:10;;;;;;;2.42;0.77;;;20.20;99.90;;;;;;5096337;28;20503;-88
2023/09/03 08:47:41;;;;;;;1.45;0.50;;;20.30;99.90;;;;;;5096599;28;20103;-84
2023/09/03 08:50:11;;;;;;;5.82;0.70;;;20.30;99.90;;;;;;5096467;28;20166;-86
2023/09/03 08:52:38;;;;;;;2.85;0.40;;;20.40;99.90;;;;;;5096054;28;20095;-87
2023/09/03 08:55:05;;;;;;;4.10;0.60;;;20.60;99.90;;;;;;5096146;28;20036;-87
2023/09/03 08:57:34;;;;;;;6.65;0.50;;;20.60;99.90;;;;;;5095996;28;20020;-86
2023/09/03 09:00:06;;;;;;;2.78;0.60;;;20.70;99.90;;;;;;5096289;28;20024;-87
2023/09/03 09:02:36;;;;;;;2.20;0.52;;;20.80;99.90;;;;;;5096053;28;20024;-87
2023/09/03 09:05:07;;;;;;;3.67;1.45;;;20.80;99.90;;;;;;5094541;28;20073;-86
2023/09/03 09:07:33;;;;;;;4.50;1.02;;;20.90;99.90;;;;;;5096110;28;20026;-85
2023/09/03 09:10:08;;;;;;;4.80;0.43;;;21.10;99.90;;;;;;5094725;28;20119;-86
2023/09/03 09:12:42;;;;;;;1.70;0.60;;;21.60;99.90;;;;;;5107191;28;20050;-86
2023/09/03 09:15:08;;;;;;;2.67;0.63;;;22.10;99.90;;;;;;5114687;28;20062;-87
2023/09/03 09:17:38;;;;;;;1.42;0.60;;;22.50;99.90;;;;;;5114984;28;20020;-87
2023/09/03 09:20:08;;;;;;;1.20;0.60;;;22.60;99.90;;;;;;5115050;28;20037;-86
2023/09/03 09:22:40;;;;;;;0.85;0.50;;;22.90;99.90;;;;;;5114287;28;20015;-86
2023/09/03 09:25:07;;;;;;;3.90;0.77;;;23.40;99.90;;;;;;5083685;28;20051;-86
2023/09/03 09:27:37;;;;;;;2.72;0.70;;;23.90;99.90;;;;;;5094980;28;20032;-86
2023/09/03 09:30:14;;;;;;;5.07;0.95;;;24.20;99.90;;;;;;5093293;28;20472;-87
2023/09/03 09:32:41;;;;;;;4.53;0.85;;;24.10;99.90;;;;;;5094758;28;20028;-87
2023/09/03 09:35:08;;;;;;;1.25;0.55;;;24.20;99.90;;;;;;5096289;28;20023;-87
2023/09/03 09:37:40;;;;;;;2.70;1.00;;;24.30;99.90;;;;;;5095250;28;20038;-87
2023/09/03 09:40:12;;;;;;;2.63;0.68;;;25.10;99.90;;;;;;5095395;28;20480;-89
2023/09/03 09:43:00;;;;;;;1.17;0.50;;;26.10;99.90;;;;;;5093531;28;20059;-87
2023/09/03 09:45:27;;;;;;;1.48;0.60;;;27.20;99.90;;;;;;5091822;28;20028;-87
2023/09/03 09:48:06;;;;;;;2.05;0.50;;;27.70;99.00;;;;;;5095035;28;20412;-88
2023/09/03 09:50:39;;;;;;;3.72;0.70;;;27.90;94.80;;;;;;5092194;28;20059;-87
2023/09/03 09:53:19;;;;;;;3.38;0.73;;;27.90;96.20;;;;;;5073351;28;20028;-87
2023/09/03 09:55:46;;;;;;;1.35;0.50;;;28.40;95.80;;;;;;5072894;28;20028;-84
2023/09/03 09:58:12;;;;;;;1.50;0.50;;;28.60;92.90;;;;;;5073734;28;20040;-82
2023/09/03 10:00:41;;;;;;;1.90;0.50;;;28.60;90.00;;;;;;5073692;28;20028;-86
2023/09/03 10:03:15;;;;;;;1.83;0.60;;;28.10;90.50;;;;;;5074088;28;20029;-87
2023/09/03 10:05:50;;;;;;;1.55;0.55;;;27.80;91.80;;;;;;5073381;28;20124;-86
2023/09/03 10:08:16;;;;;;;2.03;0.50;;;27.40;93.90;;;;;;5074259;28;20024;-87
2023/09/03 10:10:44;;;;;;;1.00;0.50;;;27.30;94.40;;;;;;5073569;28;20036;-86
2023/09/03 10:13:10;;;;;;;1.38;0.40;;;27.30;94.40;;;;;;5073042;28;20044;-86
2023/09/03 10:15:40;;;;;;;1.10;0.38;;;27.00;93.00;;;;;;5073312;28;20068;-87
2023/09/03 10:18:07;;;;;;;2.17;0.40;;;26.70;94.30;;;;;;5074249;28;20528;-87
2023/09/03 10:20:34;;;;;;;5.13;0.70;;;26.30;95.30;;;;;;5073648;28;20054;-86
2023/09/03 10:23:03;;;;;;;2.65;0.60;;;26.10;97.90;;;;;;5072848;28;20032;-87
2023/09/03 10:25:33;;;;;;;2.53;0.50;;;25.90;99.50;;;;;;5072586;28;20032;-86
2023/09/03 10:28:03;;;;;;;2.13;0.65;;;25.70;99.70;;;;;;5072970;28;20146;-87
2023/09/03 10:30:40;;;;;;;4.60;0.52;;;25.40;99.90;;;;;;5072539;28;20028;-86
2023/09/03 10:33:10;;;;;;;1.98;0.50;;;25.20;99.90;;;;;;5073988;28;20020;-87
2023/09/03 10:35:35;;;;;;;3.80;0.60;;;25.10;99.90;;;;;;5072980;28;20024;-88
2023/09/03 10:38:02;;;;;;;4.72;0.60;;;25.00;99.90;;;;;;5073817;28;20085;-86
2023/09/03 10:40:29;;;;;;;1.10;0.40;;;24.90;99.90;;;;;;5072798;28;20062;-87
2023/09/03 10:43:14;;;;;;;3.67;0.50;;;24.70;99.90;;;;;;5073928;28;20024;-88
2023/09/03 10:46:00;;;;;;;1.07;0.43;;;24.50;99.90;;;;;;5073979;28;20063;-88
2023/09/03 10:48:27;;;;;;;3.10;0.43;;;24.30;99.90;;;;;;5071930;28;20094;-88
2023/09/03 10:50:53;;;;;;;2.72;0.50;;;24.20;99.90;;;;;;5073652;28;20029;-87
2023/09/03 10:53:35;;;;;;;2.53;0.35;;;24.10;99.90;;;;;;5073252;28;20028;-87
2023/09/03 10:56:13;;;;;;;3.00;0.30;;;24.10;99.90;;;;;;5072352;28;20504;-88
2023/09/03 10:58:53;;;;;;;4.10;0.40;;;23.90;99.90;;;;;;5072691;28;20025;-87
2023/09/03 11:01:20;;;;;;;4.72;0.30;;;23.90;99.90;;;;;;5072341;28;20044;-87
2023/09/03 11:03:48;;;;;;;0.73;0.40;;;23.90;99.90;;;;;;5073318;28;20416;-87
2023/09/03 11:06:17;;;;;;;1.10;0.50;;;23.80;99.90;;;;;;5071438;28;20505;-88
2023/09/03 11:08:43;;;;;;;0.82;0.30;;;23.70;99.90;;;;;;5072350;28;20028;-88
2023/09/03 11:11:10;;;;;;;1.23;0.50;;;23.80;99.90;;;;;;5073062;28;20013;-87
2023/09/03 11:13:36;;;;;;;1.95;0.47;;;23.80;99.90;;;;;;5073250;28;20031;-87
2023/09/03 11:16:03;;;;;;;0.93;0.40;;;23.80;99.90;;;;;;5073128;28;20071;-87
2023/09/03 11:18:30;;;;;;;0.55;0.30;;;23.70;99.90;;;;;;5071979;28;20021;-87
2023/09/03 11:20:57;;;;;;;2.45;0.40;;;23.50;99.90;;;;;;5071977;28;20028;-87
2023/09/03 11:23:24;;;;;;;1.83;0.40;;;23.60;99.90;;;;;;5072931;28;20029;-87
2023/09/03 11:25:50;;;;;;;1.05;0.30;;;23.60;99.90;;;;;;5072229;28;20095;-86
2023/09/03 11:28:16;;;;;;;0.60;0.50;;;23.70;99.90;;;;;;5071784;28;20060;-87
2023/09/03 11:30:46;;;;;;;0.80;0.30;;;23.70;99.90;;;;;;5071976;28;20059;-86
2023/09/03 11:33:26;;;;;;;1.35;0.40;;;23.90;99.90;;;;;;5071455;28;20082;-87
2023/09/03 11:35:56;;;;;;;1.33;0.40;;;24.10;99.90;;;;;;5078746;28;20055;-87
2023/09/03 11:38:25;;;;;;;1.02;0.32;;;24.10;99.90;;;;;;5072890;28;20044;-88
2023/09/03 11:40:56;;;;;;;0.98;0.40;;;24.30;99.90;;;;;;5088871;28;20029;-87
2023/09/03 11:43:24;;;;;;;2.17;0.68;;;24.40;99.90;;;;;;5072652;28;20032;-88
2023/09/03 11:45:50;;;;;;;0.77;0.35;;;24.50;99.90;;;;;;5072671;28;20021;-87
2023/09/03 11:48:24;;;;;;;1.90;0.35;;;24.60;99.90;;;;;;5087887;28;20027;-87
2023/09/03 11:50:51;;;;;;;1.58;0.57;;;24.70;99.90;;;;;;5072192;28;20099;-88
2023/09/03 11:53:17;;;;;;;1.55;0.40;;;24.80;99.90;;;;;;5072696;28;20052;-88
2023/09/03 11:55:48;;;;;;;1.60;0.50;;;25.00;99.90;;;;;;5088388;28;20397;-88
2023/09/03 11:58:16;;;;;;;1.83;0.88;;;25.00;99.90;;;;;;5072949;28;20032;-87
2023/09/03 12:00:42;;;;;;;4.43;0.50;;;25.00;99.90;;;;;;5087674;28;20024;-87
2023/09/03 12:03:09;;;;;;;2.22;0.50;;;24.90;99.90;;;;;;5087840;28;20068;-87
2023/09/03 12:05:35;;;;;;;3.30;0.50;;;24.70;99.90;;;;;;5072360;28;20036;-87
2023/09/03 12:08:04;;;;;;;1.95;0.40;;;24.50;99.90;;;;;;5072423;28;20154;-87
2023/09/03 12:10:31;;;;;;;0.70;0.40;;;24.60;99.90;;;;;;5089293;28;20515;-87
2023/09/03 12:12:59;;;;;;;5.40;0.52;;;24.60;99.90;;;;;;5075369;28;20036;-87
2023/09/03 12:15:26;;;;;;;1.40;0.50;;;24.60;99.90;;;;;;5091470;28;20048;-87
2023/09/03 12:17:52;;;;;;;1.27;0.32;;;24.60;99.90;;;;;;5092188;28;20043;-87
2023/09/03 12:20:32;;;;;;;2.20;0.50;;;24.60;99.90;;;;;;5075860;28;20032;-87
2023/09/03 12:23:15;;;;;;;0.70;0.40;;;24.50;99.90;;;;;;5092090;28;20032;-86
2023/09/03 12:25:42;;;;;;;2.03;0.52;;;24.50;99.90;;;;;;5091950;28;20025;-87
2023/09/03 12:28:11;;;;;;;4.85;0.50;;;24.40;99.90;;;;;;5092213;28;20528;-87
2023/09/03 12:30:56;;;;;;;4.00;0.40;;;24.40;99.90;;;;;;5076600;28;20020;-87
2023/09/03 12:33:27;;;;;;;1.13;0.30;;;24.30;99.90;;;;;;5076102;28;20033;-87
2023/09/03 12:36:13;;;;;;;1.85;0.50;;;24.30;99.90;;;;;;5091108;28;20028;-87
2023/09/03 12:38:48;;;;;;;0.77;0.45;;;24.30;99.90;;;;;;5076220;28;20378;-87
2023/09/03 12:41:16;;;;;;;2.30;0.63;;;24.40;99.90;;;;;;5091669;28;20056;-87
2023/09/03 12:43:42;;;;;;;4.97;0.40;;;24.60;99.90;;;;;;5074663;28;20028;-87
2023/09/03 12:46:09;;;;;;;1.08;0.38;;;24.60;99.90;;;;;;5090855;28;20036;-87
2023/09/03 12:48:35;;;;;;;1.27;0.45;;;24.60;99.90;;;;;;5091810;28;20021;-87
2023/09/03 12:51:02;;;;;;;2.42;0.65;;;24.70;99.90;;;;;;5091923;28;20036;-87